createdAt,value
2018-11-07T00:00:09.376Z,59.43
2018-11-07T00:02:36.963Z,65.93
2018-11-07T00:05:05.271Z,69.23
2018-11-07T00:07:32.925Z,71.63
2018-11-07T00:10:00.718Z,63.53
2018-11-07T00:12:28.271Z,69.70
2018-11-07T00:14:55.762Z,68.20
2018-11-07T00:17:23.363Z,73.47
2018-11-07T00:19:50.851Z,72.27
2018-11-07T00:22:18.415Z,57.73
2018-11-07T00:24:45.894Z,65.47
2018-11-07T00:27:13.375Z,68.57
2018-11-07T00:29:40.880Z,74.83
2018-11-07T00:32:08.430Z,68.53
2018-11-07T00:34:35.890Z,64.93
2018-11-07T00:37:03.656Z,73.47
2018-11-07T00:39:31.055Z,68.43
2018-11-07T00:41:58.683Z,85.30
2018-11-07T00:44:26.214Z,74.83
2018-11-07T00:46:53.701Z,77.67
2018-11-07T00:49:21.136Z,81.07
2018-11-07T00:51:48.876Z,74.23
2018-11-07T00:54:16.326Z,76.90
2018-11-07T00:56:43.812Z,73.63
2018-11-07T00:59:11.589Z,77.60
2018-11-07T01:01:39.126Z,71.47
2018-11-07T01:04:06.733Z,74.17
2018-11-07T01:06:34.687Z,66.83
2018-11-07T01:09:02.435Z,73.43
2018-11-07T01:11:29.974Z,79.37
2018-11-07T01:13:57.445Z,89.00
2018-11-07T01:16:24.969Z,102.93
2018-11-07T01:18:52.465Z,130.73
2018-11-07T01:21:20.112Z,205.90
2018-11-07T01:23:47.663Z,205.73
2018-11-07T01:26:15.342Z,216.20
2018-11-07T01:28:42.960Z,216.83
2018-11-07T01:31:10.497Z,210.73
2018-11-07T01:33:38.128Z,139.83
2018-11-07T01:36:05.740Z,197.37
2018-11-07T01:38:33.310Z,150.97
2018-11-07T01:41:00.955Z,152.37
2018-11-07T01:43:28.591Z,175.83
2018-11-07T01:45:56.173Z,198.07
2018-11-07T01:48:23.951Z,200.07
2018-11-07T01:50:51.777Z,193.53
2018-11-07T01:53:19.454Z,216.80
2018-11-07T01:55:47.266Z,211.77
2018-11-07T01:58:14.914Z,150.83
2018-11-07T02:00:42.428Z,136.87
2018-11-07T02:03:09.869Z,155.10
2018-11-07T02:05:37.367Z,125.20
2018-11-07T02:08:04.972Z,177.87
2018-11-07T02:10:32.540Z,152.47
2018-11-07T02:13:00.081Z,157.90
2018-11-07T02:15:27.598Z,167.67
2018-11-07T02:17:55.034Z,168.10
2018-11-07T02:20:22.704Z,122.53
2018-11-07T02:22:50.188Z,107.43
2018-11-07T02:25:17.720Z,113.67
2018-11-07T02:27:45.185Z,113.80
2018-11-07T02:30:14.394Z,105.00
2018-11-07T02:32:41.893Z,114.40
2018-11-07T02:35:09.381Z,97.83
2018-11-07T02:37:36.951Z,75.83
2018-11-07T02:40:04.815Z,95.23
2018-11-07T02:42:32.431Z,84.53
2018-11-07T02:44:59.861Z,82.93
2018-11-07T02:47:27.384Z,82.73
2018-11-07T02:49:54.824Z,75.13
2018-11-07T02:52:22.226Z,76.23
2018-11-07T02:54:49.678Z,85.30
2018-11-07T02:57:17.235Z,90.50
2018-11-07T02:59:44.750Z,83.10
2018-11-07T03:02:12.441Z,81.47
2018-11-07T03:04:40.049Z,69.90
2018-11-07T03:07:07.469Z,80.47
2018-11-07T03:09:34.999Z,73.50
2018-11-07T03:12:02.586Z,69.30
2018-11-07T03:14:30.015Z,76.03
2018-11-07T03:16:57.552Z,80.13
2018-11-07T03:19:25.007Z,75.90
2018-11-07T03:21:52.599Z,68.07
2018-11-07T03:24:20.021Z,73.90
2018-11-07T03:26:47.514Z,69.70
2018-11-07T03:29:14.945Z,82.70
2018-11-07T03:31:42.451Z,90.27
2018-11-07T03:34:10.011Z,70.37
2018-11-07T03:36:37.429Z,71.80
2018-11-07T03:39:08.015Z,87.17
2018-11-07T03:41:35.552Z,82.83
2018-11-07T03:44:03.306Z,78.30
2018-11-07T03:46:30.835Z,83.33
2018-11-07T03:48:58.299Z,76.27
2018-11-07T03:51:25.727Z,78.50
2018-11-07T03:53:53.187Z,77.50
2018-11-07T03:56:20.737Z,72.80
2018-11-07T03:58:48.187Z,71.43
2018-11-07T04:01:15.817Z,67.57
2018-11-07T04:03:43.437Z,71.77
2018-11-07T04:06:10.953Z,77.23
2018-11-07T04:08:45.014Z,70.07
2018-11-07T04:11:12.574Z,70.07
2018-11-07T04:13:40.156Z,74.67
2018-11-07T04:16:07.652Z,75.97
2018-11-07T04:18:35.106Z,63.97
2018-11-07T04:21:03.882Z,70.00
2018-11-07T04:23:31.463Z,73.97
2018-11-07T04:25:58.964Z,69.43
2018-11-07T04:28:26.394Z,75.43
2018-11-07T04:30:53.850Z,78.47
2018-11-07T04:33:21.308Z,71.37
2018-11-07T04:35:48.802Z,70.40
2018-11-07T04:38:16.306Z,63.67
2018-11-07T04:40:43.766Z,71.33
2018-11-07T04:43:11.234Z,69.90
2018-11-07T04:45:38.686Z,68.97
2018-11-07T04:48:06.101Z,59.50
2018-11-07T04:50:33.502Z,81.57
2018-11-07T04:53:00.954Z,73.23
2018-11-07T04:55:28.386Z,73.20
2018-11-07T04:57:55.781Z,71.40
2018-11-07T05:00:23.377Z,76.90
2018-11-07T05:02:50.753Z,75.43
2018-11-07T05:05:18.330Z,84.73
2018-11-07T05:07:45.843Z,92.27
2018-11-07T05:10:13.202Z,77.10
2018-11-07T05:12:40.633Z,83.63
2018-11-07T05:15:08.986Z,81.57
2018-11-07T05:17:36.515Z,75.83
2018-11-07T05:20:05.709Z,72.43
2018-11-07T05:22:33.182Z,83.60
2018-11-07T05:25:00.598Z,82.77
2018-11-07T05:27:28.024Z,76.43
2018-11-07T05:29:55.468Z,74.20
2018-11-07T05:32:23.038Z,70.80
2018-11-07T05:34:50.492Z,79.70
2018-11-07T05:37:17.956Z,71.93
2018-11-07T05:39:45.354Z,75.47
2018-11-07T05:42:12.766Z,63.60
2018-11-07T05:44:40.304Z,67.67
2018-11-07T05:47:07.777Z,71.30
2018-11-07T05:49:35.183Z,59.93
2018-11-07T05:52:02.661Z,69.33
2018-11-07T05:54:30.095Z,60.70
2018-11-07T05:56:57.497Z,72.43
2018-11-07T05:59:24.945Z,61.23
2018-11-07T06:01:52.370Z,58.63
2018-11-07T06:04:19.870Z,58.27
2018-11-07T06:06:47.371Z,64.13
2018-11-07T06:09:14.790Z,51.50
2018-11-07T06:11:42.425Z,46.90
2018-11-07T06:14:09.843Z,56.43
2018-11-07T06:16:37.346Z,52.33
2018-11-07T06:19:05.007Z,58.23
2018-11-07T06:21:32.806Z,55.77
2018-11-07T06:24:00.271Z,50.77
2018-11-07T06:26:27.750Z,53.37
2018-11-07T06:28:55.196Z,51.27
2018-11-07T06:31:22.638Z,50.53
2018-11-07T06:33:50.070Z,53.00
2018-11-07T06:36:17.688Z,44.17
2018-11-07T06:38:45.104Z,45.20
2018-11-07T06:41:12.554Z,52.70
2018-11-07T06:43:40.136Z,46.03
2018-11-07T06:46:07.580Z,42.60
2018-11-07T06:48:35.045Z,40.00
2018-11-07T06:51:02.502Z,40.80
2018-11-07T06:53:29.961Z,43.10
2018-11-07T06:55:57.410Z,38.47
2018-11-07T06:58:24.860Z,33.70
2018-11-07T07:00:52.290Z,33.60
2018-11-07T07:03:19.762Z,33.53
2018-11-07T07:05:47.258Z,34.23
2018-11-07T07:08:14.670Z,29.70
2018-11-07T07:10:42.243Z,35.63
2018-11-07T07:13:09.710Z,31.20
2018-11-07T07:15:37.206Z,27.97
2018-11-07T07:18:05.039Z,37.23
2018-11-07T07:20:32.446Z,33.03
2018-11-07T07:22:59.986Z,32.60
2018-11-07T07:25:27.504Z,42.93
2018-11-07T07:27:54.974Z,31.70
2018-11-07T07:30:25.482Z,30.17
2018-11-07T07:32:53.049Z,32.40
2018-11-07T07:35:20.679Z,30.73
2018-11-07T07:37:48.115Z,28.53
2018-11-07T07:40:16.143Z,32.90
2018-11-07T07:42:44.498Z,29.23
2018-11-07T07:45:14.129Z,18.47
2018-11-07T07:47:42.393Z,19.83
2018-11-07T07:50:11.541Z,17.90
2018-11-07T07:52:39.567Z,14.87
2018-11-07T07:55:07.921Z,17.83
2018-11-07T07:57:35.961Z,12.60
2018-11-07T08:00:03.887Z,16.80
2018-11-07T08:02:31.322Z,16.77
2018-11-07T08:04:58.777Z,13.20
2018-11-07T08:07:26.316Z,17.00
2018-11-07T08:09:53.745Z,16.13
2018-11-07T08:12:21.297Z,15.97
2018-11-07T08:14:48.795Z,15.97
2018-11-07T08:17:16.382Z,18.03
2018-11-07T08:19:43.832Z,19.20
2018-11-07T08:22:11.412Z,24.83
2018-11-07T08:24:38.936Z,17.80
2018-11-07T08:27:06.468Z,21.80
2018-11-07T08:29:34.187Z,22.40
2018-11-07T08:32:01.809Z,19.53
2018-11-07T08:34:29.394Z,20.70
2018-11-07T08:36:56.831Z,25.00
2018-11-07T08:39:24.283Z,16.43
2018-11-07T08:41:51.966Z,22.10
2018-11-07T08:44:19.458Z,18.07
2018-11-07T08:46:46.978Z,20.90
2018-11-07T08:49:14.630Z,31.33
2018-11-07T08:51:42.251Z,25.67
2018-11-07T08:54:09.651Z,28.83
2018-11-07T08:56:37.231Z,26.47
2018-11-07T08:59:05.108Z,20.87
2018-11-07T09:01:32.685Z,27.40
2018-11-07T09:04:00.097Z,30.23
2018-11-07T09:06:27.673Z,28.00
2018-11-07T09:08:55.094Z,20.80
2018-11-07T09:11:22.582Z,26.90
2018-11-07T09:13:50.357Z,24.90
2018-11-07T09:16:17.874Z,20.10
2018-11-07T09:18:45.370Z,19.63
2018-11-07T09:21:12.922Z,23.10
2018-11-07T09:23:40.584Z,20.70
2018-11-07T09:26:08.101Z,23.80
2018-11-07T09:28:35.549Z,22.37
2018-11-07T09:31:03.070Z,22.50
2018-11-07T09:33:30.559Z,21.53
2018-11-07T09:35:58.024Z,20.97
2018-11-07T09:38:25.648Z,20.67
2018-11-07T09:40:53.226Z,24.33
2018-11-07T09:43:20.755Z,22.57
2018-11-07T09:45:48.223Z,24.20
2018-11-07T09:48:15.893Z,21.43
2018-11-07T09:50:43.284Z,26.47
2018-11-07T09:53:10.726Z,23.30
2018-11-07T09:55:38.226Z,26.13
2018-11-07T09:58:05.970Z,25.77
2018-11-07T10:00:33.437Z,25.13
2018-11-07T10:03:00.905Z,20.13
2018-11-07T10:05:28.443Z,20.87
2018-11-07T10:07:55.902Z,22.40
2018-11-07T10:10:23.424Z,22.97
2018-11-07T10:12:51.164Z,26.67
2018-11-07T10:15:19.241Z,31.33
2018-11-07T10:17:46.729Z,25.37
2018-11-07T10:20:20.945Z,25.43
2018-11-07T10:22:48.930Z,25.03
2018-11-07T10:25:16.656Z,27.63
2018-11-07T10:27:44.566Z,28.37
2018-11-07T10:30:14.196Z,27.00
2018-11-07T10:32:42.716Z,30.67
2018-11-07T10:35:10.505Z,20.33
2018-11-07T10:37:38.031Z,22.37
2018-11-07T10:40:12.987Z,22.70
2018-11-07T10:42:40.758Z,20.87
2018-11-07T10:45:08.788Z,15.73
2018-11-07T10:47:36.237Z,19.13
2018-11-07T10:50:04.394Z,18.63
2018-11-07T10:52:31.871Z,28.03
2018-11-07T10:54:59.320Z,16.87
2018-11-07T10:57:26.879Z,20.63
2018-11-07T10:59:54.355Z,12.63
2018-11-07T11:02:27.555Z,11.90
2018-11-07T11:04:55.084Z,18.10
2018-11-07T11:07:22.517Z,13.57
2018-11-07T11:09:49.933Z,23.83
2018-11-07T11:12:17.373Z,22.33
2018-11-07T11:14:44.900Z,14.80
2018-11-07T11:17:12.487Z,12.93
2018-11-07T11:19:39.989Z,19.90
2018-11-07T11:22:07.748Z,16.13
2018-11-07T11:24:35.251Z,16.10
2018-11-07T11:27:02.781Z,22.00
2018-11-07T11:29:30.293Z,20.40
2018-11-07T11:31:57.739Z,14.50
2018-11-07T11:34:25.314Z,20.53
2018-11-07T11:36:52.635Z,15.13
2018-11-07T11:39:20.069Z,23.10
2018-11-07T11:41:47.585Z,14.20
2018-11-07T11:44:15.022Z,20.77
2018-11-07T11:46:43.253Z,15.80
2018-11-07T11:49:10.700Z,13.93
2018-11-07T11:51:38.213Z,15.43
2018-11-07T11:54:05.621Z,21.63
2018-11-07T11:56:33.066Z,14.63
2018-11-07T11:59:00.568Z,19.00
2018-11-07T12:01:27.956Z,17.30
2018-11-07T12:03:55.539Z,21.23
2018-11-07T12:06:23.047Z,13.50
2018-11-07T12:08:50.723Z,17.47
2018-11-07T12:11:18.307Z,20.47
2018-11-07T12:13:45.801Z,19.53
2018-11-07T12:16:13.441Z,19.53
2018-11-07T12:18:40.985Z,13.30
2018-11-07T12:21:08.579Z,16.93
2018-11-07T12:23:36.121Z,14.30
2018-11-07T12:26:03.661Z,15.10
2018-11-07T12:28:31.141Z,11.07
2018-11-07T12:30:58.827Z,9.97
2018-11-07T12:33:26.255Z,15.23
2018-11-07T12:35:53.773Z,13.23
2018-11-07T12:38:21.353Z,15.17
2018-11-07T12:40:48.903Z,10.00
2018-11-07T12:43:16.580Z,9.07
2018-11-07T12:45:44.051Z,10.10
2018-11-07T12:48:11.821Z,9.17
2018-11-07T12:50:39.392Z,12.00
2018-11-07T12:53:06.872Z,9.47
2018-11-07T12:55:34.339Z,9.40
2018-11-07T12:58:01.947Z,7.57
2018-11-07T13:00:29.305Z,8.77
2018-11-07T13:02:56.920Z,7.93
2018-11-07T13:05:25.113Z,6.53
2018-11-07T13:07:53.593Z,7.90
2018-11-07T13:10:21.888Z,32.57
2018-11-07T13:12:50.059Z,5.40
2018-11-07T13:15:18.074Z,10.83
2018-11-07T13:17:46.404Z,6.90
2018-11-07T13:20:16.127Z,9.17
2018-11-07T13:22:44.749Z,12.40
2018-11-07T13:25:12.763Z,6.80
2018-11-07T13:27:40.357Z,9.93
2018-11-07T13:30:10.071Z,6.53
2018-11-07T13:32:37.854Z,8.20
2018-11-07T13:35:06.825Z,6.00
2018-11-07T13:37:34.508Z,11.00
2018-11-07T13:40:01.705Z,6.10
2018-11-07T13:42:29.185Z,5.30
2018-11-07T13:44:56.645Z,9.87
2018-11-07T13:47:24.216Z,6.80
2018-11-07T13:49:51.685Z,6.50
2018-11-07T13:52:19.161Z,9.00
2018-11-07T13:54:46.591Z,12.00
2018-11-07T13:57:13.996Z,8.90
2018-11-07T13:59:41.658Z,12.23
2018-11-07T14:02:09.121Z,15.03
2018-11-07T14:04:36.631Z,7.77
2018-11-07T14:07:04.129Z,8.30
2018-11-07T14:09:31.679Z,9.53
2018-11-07T14:11:59.183Z,5.47
2018-11-07T14:14:26.731Z,6.50
2018-11-07T14:16:54.355Z,8.47
2018-11-07T14:19:21.981Z,7.97
2018-11-07T14:21:49.729Z,9.40
2018-11-07T14:24:17.285Z,9.17
2018-11-07T14:26:46.799Z,9.97
2018-11-07T14:29:16.366Z,13.30
2018-11-07T14:31:43.930Z,20.33
2018-11-07T14:34:11.834Z,31.03
2018-11-07T14:36:39.466Z,28.33
2018-11-07T14:39:08.080Z,22.70
2018-11-07T14:41:35.554Z,25.33
2018-11-07T14:44:03.129Z,21.37
2018-11-07T14:46:30.720Z,21.17
2018-11-07T14:48:58.073Z,13.53
2018-11-07T14:51:25.610Z,19.30
2018-11-07T14:53:53.072Z,18.60
2018-11-07T14:56:20.519Z,9.60
2018-11-07T14:58:48.014Z,19.60
2018-11-07T15:01:15.570Z,12.60
2018-11-07T15:03:43.054Z,8.10
2018-11-07T15:06:10.956Z,12.63
2018-11-07T15:08:38.337Z,18.17
2018-11-07T15:11:05.968Z,11.80
2018-11-07T15:13:33.558Z,15.13
2018-11-07T15:16:01.090Z,22.53
2018-11-07T15:18:28.542Z,16.70
2018-11-07T15:20:56.075Z,24.53
2018-11-07T15:23:23.653Z,20.17
2018-11-07T15:25:51.151Z,16.77
2018-11-07T15:28:18.590Z,8.10
2018-11-07T15:30:46.118Z,17.37
2018-11-07T15:33:13.526Z,12.50
2018-11-07T15:35:41.080Z,11.87
2018-11-07T15:38:08.592Z,7.13
2018-11-07T15:40:36.139Z,12.43
2018-11-07T15:43:03.729Z,13.77
2018-11-07T15:45:31.165Z,7.07
2018-11-07T15:47:58.731Z,11.23
2018-11-07T15:50:31.817Z,9.27
2018-11-07T15:52:59.317Z,11.83
2018-11-07T15:55:27.259Z,11.97
2018-11-07T15:57:54.779Z,13.57
2018-11-07T16:00:22.247Z,9.20
2018-11-07T16:02:49.835Z,11.80
2018-11-07T16:05:17.735Z,8.27
2018-11-07T16:07:45.231Z,11.43
2018-11-07T16:10:13.833Z,12.63
2018-11-07T16:12:42.027Z,11.97
2018-11-07T16:15:11.467Z,17.33
2018-11-07T16:17:39.492Z,11.47
2018-11-07T16:20:10.778Z,9.77
2018-11-07T16:22:38.496Z,9.10
2018-11-07T16:25:06.866Z,13.83
2018-11-07T16:27:34.686Z,11.60
2018-11-07T16:30:02.321Z,13.73
2018-11-07T16:32:31.578Z,11.13
2018-11-07T16:34:59.139Z,11.00
2018-11-07T16:37:26.571Z,9.97
2018-11-07T16:39:54.527Z,15.73
2018-11-07T16:42:22.075Z,25.80
2018-11-07T16:44:49.498Z,8.73
2018-11-07T16:47:17.011Z,11.13
2018-11-07T16:49:44.514Z,24.23
2018-11-07T16:52:12.076Z,15.93
2018-11-07T16:54:39.496Z,9.70
2018-11-07T16:57:06.994Z,20.00
2018-11-07T16:59:34.652Z,30.13
2018-11-07T17:02:02.095Z,67.27
2018-11-07T17:04:29.586Z,21.00
2018-11-07T17:06:57.041Z,18.60
2018-11-07T17:09:24.589Z,17.40
2018-11-07T17:11:52.140Z,13.10
2018-11-07T17:14:19.730Z,23.93
2018-11-07T17:16:47.134Z,20.07
2018-11-07T17:19:14.618Z,19.73
2018-11-07T17:21:42.094Z,19.60
2018-11-07T17:24:09.816Z,16.00
2018-11-07T17:26:37.316Z,17.27
2018-11-07T17:29:04.992Z,17.90
2018-11-07T17:31:32.727Z,15.70
2018-11-07T17:34:00.200Z,15.93
2018-11-07T17:36:27.818Z,17.13
2018-11-07T17:38:55.246Z,14.30
2018-11-07T17:41:23.016Z,12.50
2018-11-07T17:43:50.436Z,13.83
2018-11-07T17:46:17.942Z,16.33
2018-11-07T17:48:45.564Z,15.37
2018-11-07T17:51:13.076Z,16.43
2018-11-07T17:53:40.580Z,16.10
2018-11-07T17:56:08.143Z,18.33
2018-11-07T17:58:35.608Z,13.00
2018-11-07T18:01:03.152Z,17.87
2018-11-07T18:03:30.631Z,16.73
2018-11-07T18:05:58.093Z,11.90
2018-11-07T18:08:25.661Z,14.43
2018-11-07T18:10:53.226Z,15.43
2018-11-07T18:13:20.700Z,24.07
2018-11-07T18:15:48.154Z,27.63
2018-11-07T18:18:15.718Z,16.67
2018-11-07T18:20:43.297Z,33.57
2018-11-07T18:23:10.726Z,19.27
2018-11-07T18:25:38.205Z,17.43
2018-11-07T18:28:05.765Z,26.93
2018-11-07T18:30:33.550Z,16.63
2018-11-07T18:33:01.164Z,16.53
2018-11-07T18:35:28.710Z,14.30
2018-11-07T18:37:56.118Z,14.60
2018-11-07T18:40:23.635Z,19.13
2018-11-07T18:42:51.206Z,16.87
2018-11-07T18:45:18.798Z,18.40
2018-11-07T18:47:46.826Z,17.07
2018-11-07T18:50:15.827Z,15.57
2018-11-07T18:52:43.640Z,22.73
2018-11-07T18:55:12.488Z,15.00
2018-11-07T18:57:40.703Z,15.73
2018-11-07T19:00:11.783Z,17.53
2018-11-07T19:02:39.820Z,26.03
2018-11-07T19:05:07.976Z,19.27
2018-11-07T19:07:36.285Z,12.60
2018-11-07T19:10:05.303Z,14.60
2018-11-07T19:12:32.799Z,12.50
2018-11-07T19:15:00.774Z,15.27
2018-11-07T19:17:28.315Z,12.10
2018-11-07T19:19:55.784Z,11.17
2018-11-07T19:22:23.357Z,13.73
2018-11-07T19:24:50.826Z,15.10
2018-11-07T19:27:21.351Z,13.10
2018-11-07T19:29:48.835Z,13.37
2018-11-07T19:32:16.275Z,14.90
2018-11-07T19:34:43.800Z,13.23
2018-11-07T19:37:11.338Z,13.10
2018-11-07T19:39:38.904Z,10.07
2018-11-07T19:42:06.484Z,15.10
2018-11-07T19:44:34.104Z,14.30
2018-11-07T19:47:01.764Z,12.53
2018-11-07T19:49:29.275Z,9.80
2018-11-07T19:51:56.766Z,12.33
2018-11-07T19:54:24.426Z,9.70
2018-11-07T19:56:52.158Z,19.37
2018-11-07T19:59:19.650Z,7.90
2018-11-07T20:01:47.222Z,12.60
2018-11-07T20:04:17.778Z,11.23
2018-11-07T20:06:45.305Z,11.13
2018-11-07T20:09:12.838Z,15.00
2018-11-07T20:11:40.502Z,12.23
2018-11-07T20:14:08.442Z,11.73
2018-11-07T20:16:36.044Z,14.07
2018-11-07T20:19:03.568Z,11.40
2018-11-07T20:21:31.369Z,14.73
2018-11-07T20:23:59.109Z,13.60
2018-11-07T20:26:26.646Z,8.33
2018-11-07T20:28:54.309Z,8.53
2018-11-07T20:31:21.907Z,12.03
2018-11-07T20:33:49.455Z,14.40
2018-11-07T20:36:17.452Z,10.90
2018-11-07T20:38:44.934Z,9.57
2018-11-07T20:41:12.563Z,14.13
2018-11-07T20:43:40.143Z,10.43
2018-11-07T20:46:07.653Z,12.97
2018-11-07T20:48:35.213Z,17.80
2018-11-07T20:51:02.711Z,14.10
2018-11-07T20:53:30.179Z,11.40
2018-11-07T20:55:57.797Z,10.73
2018-11-07T20:58:25.282Z,15.73
2018-11-07T21:00:52.715Z,15.57
2018-11-07T21:03:20.130Z,12.13
2018-11-07T21:05:47.748Z,11.50
2018-11-07T21:08:15.195Z,10.57
2018-11-07T21:10:42.835Z,10.30
2018-11-07T21:13:10.714Z,10.20
2018-11-07T21:15:38.369Z,13.20
2018-11-07T21:18:05.987Z,10.50
2018-11-07T21:20:33.539Z,19.37
2018-11-07T21:23:00.991Z,12.33
2018-11-07T21:25:28.591Z,12.20
2018-11-07T21:27:56.251Z,7.80
2018-11-07T21:30:23.767Z,12.23
2018-11-07T21:32:51.314Z,8.00
2018-11-07T21:35:18.839Z,10.80
2018-11-07T21:37:46.405Z,8.07
2018-11-07T21:40:15.507Z,10.20
2018-11-07T21:42:43.721Z,7.37
2018-11-07T21:45:12.356Z,9.53
2018-11-07T21:47:40.733Z,7.30
2018-11-07T21:50:09.982Z,12.73
2018-11-07T21:52:37.904Z,7.13
2018-11-07T21:55:06.333Z,12.53
2018-11-07T21:57:34.165Z,12.13
2018-11-07T22:00:01.830Z,7.93
2018-11-07T22:02:29.393Z,7.93
2018-11-07T22:04:56.861Z,12.93
2018-11-07T22:07:24.307Z,7.87
2018-11-07T22:09:51.786Z,6.93
2018-11-07T22:12:19.285Z,9.07
2018-11-07T22:14:46.762Z,7.47
2018-11-07T22:17:14.304Z,10.97
2018-11-07T22:19:41.850Z,10.30
2018-11-07T22:22:09.313Z,13.63
2018-11-07T22:24:36.760Z,5.97
2018-11-07T22:27:04.706Z,11.47
2018-11-07T22:29:32.126Z,9.50
2018-11-07T22:31:59.579Z,9.60
2018-11-07T22:34:27.073Z,7.40
2018-11-07T22:36:54.608Z,7.57
2018-11-07T22:39:22.062Z,9.43
2018-11-07T22:41:49.890Z,14.13
2018-11-07T22:44:17.298Z,11.30
2018-11-07T22:46:44.746Z,7.80
2018-11-07T22:49:12.225Z,9.47
2018-11-07T22:51:39.655Z,11.93
2018-11-07T22:54:07.086Z,12.73
2018-11-07T22:56:34.594Z,11.70
2018-11-07T22:59:02.058Z,11.77
2018-11-07T23:01:35.275Z,14.63
2018-11-07T23:04:02.751Z,9.10
2018-11-07T23:06:30.293Z,14.70
2018-11-07T23:08:57.769Z,10.30
2018-11-07T23:11:25.201Z,8.30
2018-11-07T23:13:52.764Z,11.00
2018-11-07T23:16:20.531Z,12.13
2018-11-07T23:18:54.814Z,9.80
2018-11-07T23:21:22.342Z,14.33
2018-11-07T23:23:49.768Z,9.07
2018-11-07T23:26:17.246Z,13.53
2018-11-07T23:28:44.660Z,10.40
2018-11-07T23:31:12.150Z,9.37
2018-11-07T23:33:39.654Z,10.83
2018-11-07T23:36:07.454Z,18.27
2018-11-07T23:38:34.917Z,14.50
2018-11-07T23:41:02.366Z,20.33
2018-11-07T23:43:30.017Z,9.23
2018-11-07T23:45:57.468Z,12.20
2018-11-07T23:48:24.940Z,14.40
2018-11-07T23:50:52.562Z,9.57
2018-11-07T23:53:20.035Z,10.50
2018-11-07T23:55:47.536Z,9.20
2018-11-07T23:58:15.150Z,12.40
